Time;durP1;ratioP1;P1;durP2;ratioP2;P2;SDS_P1;SDS_P2;PMS_P1;PMS_P2;Temp;Humidity;BMP_temperature;BMP_pressure;BME280_temperature;BME280_humidity;BME280_pressure;Samples;Min_cycle;Max_cycle;Signal;HPM_P1;HPM_P2
2022/03/31 00:00:42;;;;;;;10.90;8.08;;;;;;;1.34;67.44;99187.23;1662745;86;27377;-68
2022/03/31 00:03:13;;;;;;;13.85;7.78;;;;;;;1.30;67.74;99185.66;1663525;86;25410;-69
2022/03/31 00:05:40;;;;;;;15.93;8.35;;;;;;;1.28;67.35;99185.14;1663686;86;25664;-69
2022/03/31 00:08:17;;;;;;;10.05;7.33;;;;;;;1.28;67.69;99189.14;1663591;86;26014;-69
2022/03/31 00:10:47;;;;;;;14.20;8.03;;;;;;;1.23;67.89;99187.29;1663186;86;25662;-69
2022/03/31 00:13:18;;;;;;;10.90;7.62;;;;;;;1.20;68.34;99189.70;1663722;86;27465;-69
2022/03/31 00:15:46;;;;;;;13.90;8.08;;;;;;;1.13;68.18;99188.67;1663585;86;27228;-68
2022/03/31 00:18:14;;;;;;;12.98;7.45;;;;;;;1.08;68.29;99186.81;1663534;86;25420;-69
2022/03/31 00:20:40;;;;;;;14.87;7.43;;;;;;;1.03;68.52;99186.05;1663784;86;26012;-69
2022/03/31 00:23:07;;;;;;;13.68;7.40;;;;;;;1.02;68.65;99185.78;1663567;86;32527;-68
2022/03/31 00:25:34;;;;;;;13.60;7.78;;;;;;;1.02;68.81;99183.93;1663643;86;27391;-68
2022/03/31 00:28:03;;;;;;;11.83;7.78;;;;;;;1.00;69.32;99179.93;1642363;86;25722;-68
2022/03/31 00:30:30;;;;;;;14.10;7.08;;;;;;;0.97;69.07;99183.13;1663720;86;25636;-70
2022/03/31 00:32:57;;;;;;;10.38;7.47;;;;;;;0.94;69.28;99173.84;1663527;86;25818;-69
2022/03/31 00:35:25;;;;;;;13.78;8.38;;;;;;;0.90;69.35;99182.91;1663705;86;25587;-70
2022/03/31 00:37:51;;;;;;;11.15;7.62;;;;;;;0.87;69.18;99178.13;1662966;86;27357;-71
2022/03/31 00:40:21;;;;;;;13.70;7.50;;;;;;;0.85;69.21;99185.59;1661314;86;27272;-71
2022/03/31 00:42:49;;;;;;;;;;;;;;;0.81;69.63;99182.40;1664142;86;25722;-71
2022/03/31 00:45:23;;;;;;;;;;;;;;;0.80;69.55;99179.46;1632242;88;25973;-71
2022/03/31 00:47:51;;;;;;;9.78;6.97;;;;;;;0.79;69.81;99178.67;1629868;88;25613;-71
2022/03/31 00:50:18;;;;;;;10.85;6.70;;;;;;;0.76;69.48;99174.42;1629750;88;27340;-71
2022/03/31 00:52:45;;;;;;;10.93;7.00;;;;;;;0.74;69.92;99178.14;1629722;87;25731;-71
2022/03/31 00:55:14;;;;;;;9.73;7.40;;;;;;;0.71;69.63;99173.36;1629807;87;25594;-71
2022/03/31 00:57:43;;;;;;;9.75;6.67;;;;;;;0.71;69.80;99174.69;1629931;88;25922;-71
2022/03/31 01:00:14;;;;;;;12.85;7.28;;;;;;;0.68;69.78;99166.45;1629717;88;25556;-71
2022/03/31 01:02:43;;;;;;;10.45;7.03;;;;;;;0.65;69.86;99163.81;1629781;87;27971;-71
2022/03/31 01:05:11;;;;;;;11.33;7.12;;;;;;;0.63;70.06;99160.63;1629683;87;25753;-71
2022/03/31 01:07:39;;;;;;;11.18;7.42;;;;;;;0.62;70.52;99163.02;1629848;87;25648;-71
2022/03/31 01:10:09;;;;;;;12.40;8.30;;;;;;;0.60;70.14;99157.17;1629645;88;25754;-71
2022/03/31 01:12:36;;;;;;;11.30;6.60;;;;;;;0.59;71.04;99152.91;1629929;87;25685;-71
2022/03/31 01:15:18;;;;;;;11.83;7.25;;;;;;;0.57;70.58;99153.72;1629864;87;28059;-71
2022/03/31 01:17:48;;;;;;;10.98;7.17;;;;;;;0.57;70.48;99150.27;1629727;87;25443;-71
2022/03/31 01:20:22;;;;;;;13.50;7.30;;;;;;;0.58;70.64;99154.50;1629717;87;25743;-69
2022/03/31 01:22:51;;;;;;;12.00;6.85;;;;;;;0.55;70.59;99153.98;1629405;87;25886;-70
2022/03/31 01:25:19;;;;;;;10.03;6.53;;;;;;;0.54;70.81;99152.92;1629924;88;25471;-70
2022/03/31 01:27:47;;;;;;;12.28;7.25;;;;;;;0.52;70.58;99149.20;1629781;88;27381;-70
2022/03/31 01:30:18;;;;;;;12.47;7.00;;;;;;;0.50;70.78;99149.22;1629686;88;25578;-70
2022/03/31 01:32:45;;;;;;;9.83;6.92;;;;;;;0.47;70.72;99144.44;1602201;89;26300;-70
2022/03/31 01:35:13;;;;;;;9.90;6.55;;;;;;;0.45;70.92;99140.70;1629765;87;25650;-70
2022/03/31 01:37:40;;;;;;;10.63;6.78;;;;;;;0.45;70.88;99147.90;1629799;87;25691;-71
2022/03/31 01:40:08;;;;;;;10.00;6.55;;;;;;;0.44;70.98;99147.63;1630929;87;27548;-72
2022/03/31 01:42:35;;;;;;;12.37;6.50;;;;;;;0.45;70.86;99142.58;1631113;88;25423;-71
2022/03/31 01:45:03;;;;;;;8.53;5.87;;;;;;;0.44;71.50;99140.97;1619538;88;25609;-71
2022/03/31 01:47:29;;;;;;;11.22;6.15;;;;;;;0.43;70.94;99144.72;1631155;88;25906;-71
2022/03/31 01:49:55;;;;;;;11.75;5.75;;;;;;;0.44;70.99;99147.63;1631136;87;25557;-71
2022/03/31 01:52:22;;;;;;;10.55;5.65;;;;;;;0.45;71.09;99139.37;1631167;87;27406;-71
2022/03/31 01:54:49;;;;;;;10.40;5.50;;;;;;;0.44;71.07;99142.30;1619587;88;25546;-71
2022/03/31 01:57:16;;;;;;;14.47;6.45;;;;;;;0.43;71.03;99137.53;1631158;88;26300;-71
2022/03/31 01:59:43;;;;;;;11.05;5.70;;;;;;;0.44;70.87;99139.10;1631178;88;25711;-71
2022/03/31 02:02:13;;;;;;;11.30;5.95;;;;;;;0.42;70.81;99137.25;1631105;87;25612;-71
2022/03/31 02:04:41;;;;;;;9.68;5.53;;;;;;;0.40;71.07;99141.27;1631195;87;27348;-71
2022/03/31 02:07:09;;;;;;;10.95;5.67;;;;;;;0.39;71.23;99145.77;1631062;88;25935;-71
2022/03/31 02:09:35;;;;;;;10.40;6.08;;;;;;;0.39;71.25;99141.77;1631175;87;25651;-71
2022/03/31 02:12:02;;;;;;;12.53;6.20;;;;;;;0.39;71.15;99141.77;1631089;87;25859;-71
2022/03/31 02:14:29;;;;;;;10.48;5.42;;;;;;;0.39;71.17;99144.98;1619708;88;25521;-71
2022/03/31 02:16:55;;;;;;;12.47;5.78;;;;;;;0.36;71.29;99140.47;1631213;88;27913;-71
2022/03/31 02:19:23;;;;;;;8.28;5.65;;;;;;;0.35;71.09;99144.72;1631102;88;25673;-71
2022/03/31 02:21:49;;;;;;;11.38;6.05;;;;;;;0.36;71.02;99153.77;1631258;88;25666;-71
2022/03/31 02:24:15;;;;;;;9.18;5.55;;;;;;;0.39;71.14;99148.97;1619634;88;25461;-71
2022/03/31 02:26:42;;;;;;;9.68;5.53;;;;;;;0.38;71.23;99142.07;1631226;88;25639;-71
2022/03/31 02:29:08;;;;;;;12.03;5.65;;;;;;;0.41;71.19;99148.16;1631162;88;27362;-71
2022/03/31 02:31:36;;;;;;;14.03;5.70;;;;;;;0.41;71.18;99146.31;1631326;88;25602;-71
2022/03/31 02:34:02;;;;;;;8.28;5.45;;;;;;;0.39;71.09;99150.30;1631494;88;25676;-71
2022/03/31 02:36:28;;;;;;;10.38;5.65;;;;;;;0.38;71.15;99146.06;1631492;87;26145;-71
2022/03/31 02:38:54;;;;;;;8.45;5.35;;;;;;;0.36;71.03;99137.02;1631486;86;25564;-71
2022/03/31 02:41:20;;;;;;;7.75;5.42;;;;;;;0.36;71.09;99138.34;1663829;86;27394;-72
2022/03/31 02:43:47;;;;;;;10.15;5.50;;;;;;;0.32;71.45;99134.61;1663887;86;25594;-71
2022/03/31 02:46:13;;;;;;;9.55;5.58;;;;;;;0.30;71.29;99140.73;1663910;86;25636;-71
2022/03/31 02:48:40;;;;;;;8.98;4.83;;;;;;;0.29;71.37;99133.81;1663855;86;25943;-71
2022/03/31 02:51:06;;;;;;;8.65;5.45;;;;;;;0.27;71.24;99137.28;1663924;86;25500;-71
2022/03/31 02:56:17;;;;;;;10.98;6.30;;;;;;;0.29;71.51;99135.96;1663858;86;25445;-71
2022/03/31 02:58:44;;;;;;;10.70;5.50;;;;;;;0.28;71.36;99143.67;1663851;86;25575;-71
2022/03/31 03:01:10;;;;;;;9.43;5.58;;;;;;;0.25;71.35;99142.87;1663865;86;25976;-71
2022/03/31 03:03:37;;;;;;;7.35;5.00;;;;;;;0.23;71.35;99140.23;1664008;86;25564;-71
2022/03/31 03:06:03;;;;;;;7.70;5.10;;;;;;;0.24;71.47;99151.11;1663946;86;27951;-71
2022/03/31 03:08:31;;;;;;;9.88;6.25;;;;;;;0.25;71.71;99148.73;1663895;86;25624;-71
2022/03/31 03:11:00;;;;;;;11.95;5.80;;;;;;;0.25;71.75;99143.41;1663880;86;25411;-71
2022/03/31 03:13:26;;;;;;;9.13;5.90;;;;;;;0.27;71.80;99143.94;1664000;86;25499;-71
2022/03/31 03:15:54;;;;;;;9.50;5.62;;;;;;;0.26;71.86;99148.47;1663899;86;25584;-71
2022/03/31 03:18:20;;;;;;;10.82;5.70;;;;;;;0.25;71.66;99146.07;1663811;86;27340;-71
2022/03/31 03:20:47;;;;;;;10.55;5.53;;;;;;;0.24;71.56;99141.30;1663806;86;25565;-71
2022/03/31 03:23:13;;;;;;;9.75;5.78;;;;;;;0.25;71.67;99144.20;1663880;86;25588;-71
2022/03/31 03:25:39;;;;;;;10.72;6.03;;;;;;;0.23;71.57;99141.02;1663826;86;25860;-71
2022/03/31 03:28:08;;;;;;;11.03;6.12;;;;;;;0.21;71.83;99149.02;1663924;86;25389;-71
2022/03/31 03:30:34;;;;;;;7.75;5.62;;;;;;;0.17;71.54;99136.24;1663884;86;27336;-71
2022/03/31 03:33:00;;;;;;;10.03;6.20;;;;;;;0.19;71.64;99137.31;1663773;86;25767;-71
2022/03/31 03:35:26;;;;;;;11.12;6.33;;;;;;;0.15;71.80;99146.36;1663890;86;25624;-71
2022/03/31 03:37:53;;;;;;;9.55;5.80;;;;;;;0.14;71.61;99137.31;1663828;86;25622;-71
2022/03/31 03:40:19;;;;;;;10.88;5.97;;;;;;;0.14;71.80;99135.45;1662472;86;25629;-71
2022/03/31 03:42:45;;;;;;;9.40;6.20;;;;;;;0.14;71.90;99149.28;1620144;88;27519;-71
2022/03/31 03:45:13;;;;;;;10.08;6.53;;;;;;;0.15;71.97;99146.87;1648017;87;25555;-71
2022/03/31 03:47:39;;;;;;;10.78;6.42;;;;;;;0.14;72.04;99150.61;1648089;87;25562;-71
2022/03/31 03:50:07;;;;;;;9.55;6.37;;;;;;;0.10;71.89;99138.39;1648056;87;25856;-71
2022/03/31 03:52:33;;;;;;;8.78;6.03;;;;;;;0.12;72.01;99138.09;1648146;87;25562;-71
2022/03/31 03:54:59;;;;;;;9.38;5.83;;;;;;;0.09;72.09;99142.10;1648063;87;27976;-71
2022/03/31 03:57:26;;;;;;;10.93;6.53;;;;;;;0.06;71.91;99146.62;1648040;87;25566;-71
2022/03/31 03:59:52;;;;;;;10.63;7.15;;;;;;;0.06;72.26;99147.95;1620141;88;25655;-71
2022/03/31 04:02:20;;;;;;;13.22;6.87;;;;;;;0.08;72.33;99147.68;1661896;86;25409;-70
2022/03/31 04:04:46;;;;;;;10.80;6.70;;;;;;;0.06;72.16;99145.28;1620214;88;25683;-70
2022/03/31 04:07:13;;;;;;;11.97;6.70;;;;;;;0.05;72.27;99148.21;1648058;87;27515;-70
2022/03/31 04:09:39;;;;;;;11.63;6.65;;;;;;;0.04;72.28;99155.40;1620100;88;25731;-70
2022/03/31 04:12:06;;;;;;;10.48;7.22;;;;;;;0.03;72.25;99164.97;1648067;87;25431;-70
2022/03/31 04:14:32;;;;;;;9.70;6.78;;;;;;;0.02;72.72;99165.51;1661877;86;25969;-70
2022/03/31 04:16:59;;;;;;;10.40;6.85;;;;;;;-0.02;72.40;99161.77;1620184;88;25434;-70
2022/03/31 04:19:25;;;;;;;9.70;6.53;;;;;;;0.00;72.74;99175.63;1648088;87;27866;-70
2022/03/31 04:21:51;;;;;;;11.55;7.22;;;;;;;0.00;72.80;99164.98;1648022;87;25576;-70
2022/03/31 04:24:18;;;;;;;11.50;6.67;;;;;;;-0.01;72.81;99164.17;1620105;88;25680;-70
2022/03/31 04:26:44;;;;;;;10.72;6.92;;;;;;;0.01;72.76;99164.45;1648016;87;25605;-70
2022/03/31 04:29:11;;;;;;;13.43;6.65;;;;;;;0.04;72.81;99163.37;1648108;87;25582;-70
2022/03/31 04:31:44;;;;;;;15.15;7.20;;;;;;;0.07;72.96;99162.03;1648090;87;27464;-70
2022/03/31 04:34:15;;;;;;;9.55;6.75;;;;;;;0.08;73.00;99162.31;1648005;87;25631;-70
2022/03/31 04:36:42;;;;;;;11.70;6.78;;;;;;;0.11;72.88;99173.75;1648070;87;25665;-70
2022/03/31 04:39:09;;;;;;;13.08;7.87;;;;;;;0.13;72.92;99167.63;1618975;87;25762;-70
2022/03/31 04:41:35;;;;;;;12.28;6.60;;;;;;;0.12;72.83;99174.81;1611408;88;25649;-70
2022/03/31 04:44:01;;;;;;;11.08;6.90;;;;;;;0.13;72.78;99178.26;1630042;87;27393;-70
2022/03/31 04:46:28;;;;;;;10.53;6.87;;;;;;;0.10;72.79;99177.45;1629588;87;25771;-70
2022/03/31 04:48:54;;;;;;;11.90;6.42;;;;;;;0.10;72.96;99171.63;1630026;87;25569;-70
2022/03/31 04:51:20;;;;;;;10.78;6.83;;;;;;;0.12;72.84;99181.45;1629950;87;25607;-70
2022/03/31 04:53:47;;;;;;;13.00;7.30;;;;;;;0.14;72.78;99180.66;1630080;88;25656;-70
2022/03/31 04:56:15;;;;;;;14.10;6.65;;;;;;;0.17;72.87;99178.80;1629962;88;28085;-70
2022/03/31 04:58:42;;;;;;;9.60;6.33;;;;;;;0.19;72.68;99181.19;1630185;87;25661;-71
2022/03/31 05:01:09;;;;;;;10.58;6.08;;;;;;;0.20;72.60;99185.43;1630053;87;25660;-71
2022/03/31 05:03:35;;;;;;;9.18;6.60;;;;;;;0.20;72.68;99180.11;1630031;88;25437;-71
2022/03/31 05:06:01;;;;;;;10.15;6.17;;;;;;;0.21;72.62;99184.38;1630094;87;25682;-71
2022/03/31 05:08:27;;;;;;;13.25;7.00;;;;;;;0.24;72.59;99169.73;1630080;87;27497;-71
2022/03/31 05:10:53;;;;;;;11.93;6.97;;;;;;;0.26;72.68;99180.38;1630053;87;25402;-71
2022/03/31 05:13:31;;;;;;;9.38;6.30;;;;;;;0.28;72.41;99176.91;1630439;87;25419;-71
2022/03/31 05:15:57;;;;;;;11.57;6.83;;;;;;;0.29;72.34;99186.50;1630177;88;25443;-70
2022/03/31 05:18:25;;;;;;;11.68;6.67;;;;;;;0.31;72.19;99192.34;1630213;87;25461;-70
2022/03/31 05:20:52;;;;;;;13.22;7.35;;;;;;;0.34;72.22;99198.47;1630164;87;27426;-69
2022/03/31 05:23:20;;;;;;;13.22;6.95;;;;;;;0.38;72.23;99197.94;1630193;87;25577;-70
2022/03/31 05:25:48;;;;;;;11.48;7.35;;;;;;;0.41;72.04;99200.86;1629983;88;25571;-71
2022/03/31 05:28:15;;;;;;;11.53;6.40;;;;;;;0.44;71.87;99201.63;1629832;88;25548;-70
2022/03/31 05:30:45;;;;;;;13.18;6.75;;;;;;;0.47;71.90;99206.95;1630056;87;25632;-70
2022/03/31 05:33:11;;;;;;;12.55;7.12;;;;;;;0.48;71.59;99208.56;1629953;87;27535;-70
2022/03/31 05:35:38;;;;;;;10.80;6.65;;;;;;;0.50;71.69;99209.09;1630166;87;33149;-71
2022/03/31 05:38:04;;;;;;;17.60;10.48;;;;;;;0.55;71.70;99211.20;1630062;87;25418;-71
2022/03/31 05:40:31;;;;;;;14.55;7.00;;;;;;;0.60;71.47;99201.63;1639138;87;25464;-71
2022/03/31 05:42:57;;;;;;;10.88;6.50;;;;;;;0.61;71.31;99202.66;1661902;86;25644;-70
2022/03/31 05:45:25;;;;;;;12.93;7.03;;;;;;;0.65;71.24;99204.28;1622001;88;28104;-70
2022/03/31 05:47:53;;;;;;;11.20;6.47;;;;;;;0.70;71.34;99207.72;1649892;87;25576;-70
2022/03/31 05:50:20;;;;;;;10.53;6.37;;;;;;;0.73;71.05;99207.70;1661829;86;25502;-70
2022/03/31 05:52:47;;;;;;;13.28;7.05;;;;;;;0.75;70.72;99217.56;1622022;88;25672;-70
2022/03/31 05:55:16;;;;;;;10.55;6.80;;;;;;;0.76;70.67;99219.14;1650086;87;25460;-70
2022/03/31 05:57:43;;;;;;;12.18;6.75;;;;;;;0.79;70.61;99211.95;1627910;87;27359;-70
2022/03/31 06:00:15;;;;;;;13.22;7.30;;;;;;;0.77;70.33;99214.09;1649979;87;25734;-70
2022/03/31 06:02:42;;;;;;;10.50;6.53;;;;;;;0.74;70.25;99217.28;1662007;86;25720;-71
2022/03/31 06:05:20;;;;;;;12.25;7.35;;;;;;;0.77;70.39;99223.41;1622609;88;25534;-70
2022/03/31 06:07:48;;;;;;;13.13;6.87;;;;;;;0.81;70.59;99216.47;1650107;87;25436;-71
2022/03/31 06:10:15;;;;;;;10.80;6.50;;;;;;;0.88;70.63;99226.29;1650018;87;27972;-70
2022/03/31 06:12:42;;;;;;;12.88;7.10;;;;;;;0.95;70.38;99223.89;1650026;87;25643;-70
2022/03/31 06:15:08;;;;;;;9.70;5.70;;;;;;;1.02;70.39;99227.05;1622130;88;25668;-70
2022/03/31 06:17:35;;;;;;;12.03;6.92;;;;;;;1.07;70.11;99237.17;1650075;87;25438;-71
2022/03/31 06:20:03;;;;;;;14.50;6.90;;;;;;;1.08;69.75;99229.43;1650149;87;25260;-70
2022/03/31 06:22:29;;;;;;;18.48;7.53;;;;;;;1.09;69.73;99237.70;1650178;87;27326;-70
2022/03/31 06:24:56;;;;;;;11.45;7.08;;;;;;;1.17;70.14;99233.66;1661940;86;25498;-70
2022/03/31 06:27:22;;;;;;;10.13;6.42;;;;;;;1.23;69.84;99231.25;1622134;88;25610;-70
2022/03/31 06:29:49;;;;;;;10.50;6.70;;;;;;;1.28;69.66;99241.88;1627240;87;25486;-70
2022/03/31 06:32:16;;;;;;;9.80;6.47;;;;;;;1.32;69.35;99250.12;1650103;87;25630;-71
2022/03/31 06:34:49;;;;;;;13.00;7.03;;;;;;;1.37;69.49;99247.44;1662289;86;27093;-71
2022/03/31 06:37:16;;;;;;;9.98;6.03;;;;;;;1.39;69.07;99258.61;1622064;88;25434;-70
2022/03/31 06:39:42;;;;;;;10.18;6.62;;;;;;;1.47;69.18;99263.92;1627019;86;25472;-71
2022/03/31 06:42:10;;;;;;;10.03;6.28;;;;;;;1.51;68.93;99258.30;1619945;88;25449;-70
2022/03/31 06:44:38;;;;;;;12.45;6.53;;;;;;;1.54;68.71;99258.30;1631553;88;25497;-70
2022/03/31 06:47:05;;;;;;;13.70;6.10;;;;;;;1.57;68.83;99252.42;1631554;88;27350;-70
2022/03/31 06:49:34;;;;;;;9.08;6.42;;;;;;;1.68;69.01;99258.73;1619990;88;25597;-70
2022/03/31 06:52:01;;;;;;;10.35;6.35;;;;;;;1.77;68.98;99255.49;1631569;88;25662;-70
2022/03/31 06:54:27;;;;;;;9.73;6.60;;;;;;;1.91;68.83;99255.16;1631618;88;25958;-70
2022/03/31 06:56:55;;;;;;;13.83;8.05;;;;;;;2.05;69.08;99244.66;1620155;88;25630;-71
2022/03/31 06:59:21;;;;;;;9.73;6.45;;;;;;;2.21;68.86;99254.67;1631524;88;27361;-71
2022/03/31 07:01:48;;;;;;;10.00;6.53;;;;;;;2.33;68.15;99255.09;1631466;88;25485;-71
2022/03/31 07:04:18;;;;;;;13.08;6.62;;;;;;;2.44;67.74;99253.16;1620125;88;25458;-69
2022/03/31 07:06:48;;;;;;;12.05;6.30;;;;;;;2.61;67.80;99254.87;1631884;88;25430;-70
2022/03/31 07:09:14;;;;;;;11.75;6.90;;;;;;;2.78;67.63;99256.33;1631638;88;25635;-71
2022/03/31 07:11:41;;;;;;;10.10;6.40;;;;;;;2.96;67.07;99251.60;1631624;88;28121;-71
2022/03/31 07:14:07;;;;;;;10.65;5.97;;;;;;;3.14;66.63;99254.61;1631410;88;25625;-70
2022/03/31 07:16:37;;;;;;;11.20;6.28;;;;;;;3.24;66.17;99266.52;1631559;88;25653;-72
2022/03/31 07:19:03;;;;;;;11.43;6.50;;;;;;;3.32;65.81;99266.41;1631016;87;25989;-71
2022/03/31 07:21:30;;;;;;;14.23;6.05;;;;;;;3.40;65.30;99263.66;1620098;88;25506;-72
2022/03/31 07:23:56;;;;;;;21.52;10.88;;;;;;;3.41;64.45;99266.60;1631557;88;27438;-71
2022/03/31 07:26:22;;;;;;;11.43;6.97;;;;;;;3.36;64.37;99258.88;1631505;88;25439;-71
2022/03/31 07:28:51;;;;;;;11.00;5.40;;;;;;;3.34;64.30;99262.39;1631885;88;25658;-71
2022/03/31 07:31:18;;;;;;;9.75;5.95;;;;;;;3.41;64.42;99257.25;1631524;88;25489;-71
2022/03/31 07:33:45;;;;;;;8.43;5.37;;;;;;;3.46;64.14;99260.64;1631594;87;25691;-71
2022/03/31 07:36:12;;;;;;;8.83;5.95;;;;;;;3.50;64.06;99262.20;1613071;88;27930;-71
2022/03/31 07:38:40;;;;;;;10.60;5.92;;;;;;;3.59;63.87;99273.05;1631440;87;25857;-71
2022/03/31 07:41:08;;;;;;;9.60;5.78;;;;;;;3.64;63.36;99268.42;1631479;86;25525;-71
2022/03/31 07:43:35;;;;;;;9.33;5.85;;;;;;;3.64;63.22;99275.11;1631627;88;26077;-71
2022/03/31 07:46:01;;;;;;;9.13;5.42;;;;;;;3.63;62.88;99274.08;1604210;89;25726;-71
2022/03/31 07:48:27;;;;;;;9.18;5.95;;;;;;;3.66;62.88;99274.82;1620053;88;27352;-71
2022/03/31 07:50:56;;;;;;;12.35;6.03;;;;;;;3.67;62.67;99273.20;1631510;88;25738;-70
2022/03/31 07:53:23;;;;;;;10.43;6.00;;;;;;;3.72;62.58;99269.67;1631589;87;25482;-71
2022/03/31 07:55:50;;;;;;;11.38;5.97;;;;;;;3.77;62.61;99264.80;1631549;88;25474;-71
2022/03/31 07:58:16;;;;;;;11.85;6.03;;;;;;;3.79;62.37;99266.09;1631645;88;25626;-71
2022/03/31 08:00:43;;;;;;;12.40;6.62;;;;;;;3.81;62.03;99269.27;1620105;88;27355;-71
2022/03/31 08:03:09;;;;;;;13.00;6.35;;;;;;;3.84;62.16;99270.58;1631537;88;25734;-71
2022/03/31 08:05:40;;;;;;;11.15;6.12;;;;;;;3.91;62.27;99271.80;1632115;88;25683;-71
2022/03/31 08:08:06;;;;;;;8.23;5.78;;;;;;;4.04;62.39;99272.18;1620057;88;25441;-71
2022/03/31 08:10:33;;;;;;;11.35;5.97;;;;;;;4.11;61.64;99271.27;1631537;88;25435;-71
2022/03/31 08:13:06;;;;;;;9.75;6.05;;;;;;;4.23;61.98;99272.95;1631491;88;27445;-71
2022/03/31 08:15:30;;;;;;;10.23;6.28;;;;;;;4.38;61.29;99275.94;1631000;87;25576;-71
2022/03/31 08:17:58;;;;;;;10.48;6.30;;;;;;;4.49;61.47;99268.00;1619995;88;25585;-71
2022/03/31 08:20:25;;;;;;;9.55;6.55;;;;;;;4.61;60.78;99272.86;1631431;88;25494;-71
2022/03/31 08:22:52;;;;;;;9.70;5.35;;;;;;;4.66;60.63;99282.70;1631532;88;25648;-71
2022/03/31 08:25:18;;;;;;;11.90;6.67;;;;;;;4.71;60.36;99289.87;1631530;88;27349;-71
2022/03/31 08:27:46;;;;;;;10.10;6.05;;;;;;;4.72;60.02;99302.19;1631413;88;25718;-71
2022/03/31 08:30:16;;;;;;;8.95;5.53;;;;;;;4.75;59.96;99297.03;1631514;88;25426;-70
2022/03/31 08:32:46;;;;;;;9.58;5.55;;;;;;;4.86;59.90;99292.28;1620059;88;25545;-72
2022/03/31 08:35:15;;;;;;;9.05;5.65;;;;;;;4.92;59.61;99286.27;1631758;88;25513;-71
2022/03/31 08:37:42;;;;;;;7.08;5.37;;;;;;;5.02;59.33;99288.24;1609312;89;27359;-71
2022/03/31 08:40:13;;;;;;;8.58;5.08;;;;;;;5.09;58.74;99291.87;1609229;89;25562;-71
2022/03/31 08:42:41;;;;;;;7.72;5.03;;;;;;;5.10;58.26;99291.33;1621672;88;25685;-72
2022/03/31 08:45:15;;;;;;;11.43;6.37;;;;;;;5.09;57.97;99302.59;1622708;88;25564;-71
2022/03/31 08:47:46;;;;;;;9.28;6.05;;;;;;;5.10;58.29;99304.17;1622810;88;25477;-71
2022/03/31 08:50:13;;;;;;;10.32;5.70;;;;;;;5.26;58.28;99304.70;1622802;88;27976;-71
2022/03/31 08:52:41;;;;;;;8.50;6.12;;;;;;;5.35;57.97;99294.06;1622683;88;25644;-70
2022/03/31 08:55:09;;;;;;;10.38;5.87;;;;;;;5.51;57.96;99282.48;1601174;88;25650;-71
2022/03/31 08:57:45;;;;;;;11.55;5.53;;;;;;;5.66;57.50;99276.02;1622895;88;25854;-71
2022/03/31 09:00:13;;;;;;;10.38;5.42;;;;;;;5.71;56.84;99274.56;1622875;88;25669;-70
2022/03/31 09:02:42;;;;;;;8.90;5.37;;;;;;;5.79;56.99;99279.22;1641315;87;27358;-70
2022/03/31 09:05:10;;;;;;;10.30;5.70;;;;;;;5.86;56.29;99286.30;1648373;86;25789;-70
2022/03/31 09:08:00;;;;;;;7.58;4.65;;;;;;;5.93;56.57;99283.21;1661935;86;25567;-70
2022/03/31 09:10:33;;;;;;;9.33;5.22;;;;;;;5.92;55.62;99290.45;1622098;88;25458;-68
2022/03/31 09:13:04;;;;;;;8.70;4.83;;;;;;;5.87;55.04;99277.14;1650004;87;25465;-69
2022/03/31 09:15:32;;;;;;;7.20;4.90;;;;;;;5.85;55.47;99279.34;1650058;87;28201;-68
2022/03/31 09:18:00;;;;;;;10.32;5.67;;;;;;;5.92;55.71;99280.27;1649865;87;25642;-68
2022/03/31 09:20:40;;;;;;;12.78;9.50;;;;;;;6.01;55.34;99267.77;1661844;86;25664;-69
2022/03/31 09:23:07;;;;;;;10.88;7.03;;;;;;;6.12;55.27;99264.28;1622068;88;25439;-69
2022/03/31 09:25:37;;;;;;;20.23;9.55;;;;;;;6.23;55.03;99271.02;1662186;86;25608;-68
2022/03/31 09:28:22;;;;;;;9.88;5.85;;;;;;;6.32;54.59;99275.11;1622261;88;27376;-69
2022/03/31 09:30:55;;;;;;;9.10;5.33;;;;;;;6.39;54.49;99272.78;1650290;87;25183;-69
2022/03/31 09:33:48;;;;;;;6.83;5.08;;;;;;;6.49;54.32;99281.15;1622227;88;25507;-69
2022/03/31 09:36:18;;;;;;;7.97;4.85;;;;;;;6.57;54.12;99288.45;1649104;87;25747;-69
2022/03/31 09:39:03;;;;;;;8.98;5.12;;;;;;;6.63;53.46;99281.86;1649915;87;25660;-70
2022/03/31 09:41:36;;;;;;;6.67;4.78;;;;;;;6.62;52.60;99286.19;1644031;87;27411;-69
2022/03/31 09:44:08;;;;;;;5.80;5.20;;;;;;;6.53;52.48;99292.86;1631328;88;25676;-70
2022/03/31 09:46:39;;;;;;;8.28;5.08;;;;;;;6.53;52.75;99286.14;1615530;88;25688;-70
2022/03/31 09:49:26;;;;;;;5.45;4.42;;;;;;;6.55;52.72;99285.28;1630901;88;25727;-69
2022/03/31 09:51:59;;;;;;;8.00;5.67;;;;;;;6.58;51.19;99280.64;1583840;90;25779;-70
2022/03/31 09:54:29;;;;;;;9.33;4.62;;;;;;;6.51;51.50;99283.75;1583785;90;27624;-70
2022/03/31 09:56:58;;;;;;;10.68;5.42;;;;;;;6.47;51.26;99281.98;1583851;90;25851;-69
2022/03/31 09:59:34;;;;;;;6.70;4.90;;;;;;;6.47;51.32;99284.14;1583762;90;25337;-68
2022/03/31 10:02:03;;;;;;;9.33;4.67;;;;;;;6.44;51.15;99284.74;1583849;90;25662;-69
2022/03/31 10:04:31;;;;;;;12.75;6.53;;;;;;;6.48;51.33;99283.58;1583889;90;25726;-70
2022/03/31 10:06:58;;;;;;;11.12;6.75;;;;;;;6.56;51.71;99285.53;1584045;90;27405;-69
2022/03/31 10:09:25;;;;;;;18.20;13.30;;;;;;;6.67;51.47;99290.09;1583611;90;25727;-69
2022/03/31 10:12:09;;;;;;;17.77;11.55;;;;;;;6.75;51.25;99288.02;1583866;90;25643;-70
2022/03/31 10:15:04;;;;;;;11.15;7.45;;;;;;;6.94;51.30;99283.76;1583723;90;25702;-69
2022/03/31 10:17:32;;;;;;;7.00;6.20;;;;;;;7.14;50.72;99280.30;1583866;90;25733;-70
2022/03/31 10:20:14;;;;;;;7.28;5.20;;;;;;;7.35;50.48;99272.45;1583830;90;27393;-68
2022/03/31 10:25:40;;;;;;;8.70;6.60;;;;;;;7.57;49.60;99266.97;1583851;90;25582;-69
2022/03/31 10:28:21;;;;;;;10.15;6.67;;;;;;;7.74;49.76;99272.94;1598977;88;25678;-69
2022/03/31 10:31:04;;;;;;;6.50;5.00;;;;;;;7.84;49.64;99277.23;1631195;87;25679;-68
2022/03/31 10:33:34;;;;;;;6.25;4.90;;;;;;;7.90;49.54;99275.98;1619747;88;27361;-67
2022/03/31 10:36:12;;;;;;;10.53;4.90;;;;;;;7.90;49.00;99281.36;1631168;88;25474;-68
2022/03/31 10:38:39;;;;;;;5.60;4.72;;;;;;;7.88;48.67;99270.66;1631189;88;25663;-68
2022/03/31 10:41:11;;;;;;;9.03;5.15;;;;;;;7.76;48.46;99280.14;1631429;87;26230;-69
2022/03/31 10:43:47;;;;;;;6.17;4.60;;;;;;;7.74;48.37;99275.63;1649815;87;25637;-68
2022/03/31 10:46:20;;;;;;;5.33;4.17;;;;;;;7.66;48.23;99274.52;1650536;87;27382;-69
2022/03/31 10:48:50;;;;;;;7.58;4.72;;;;;;;7.61;48.09;99279.23;1662040;86;25654;-68
2022/03/31 10:51:16;;;;;;;;;;;;;;;7.48;47.14;99285.78;1625079;88;25780;-69
2022/03/31 10:53:51;;;;;;;6.92;4.08;;;;;;;7.28;46.87;99281.77;1650975;86;34790;-69
2022/03/31 10:56:26;;;;;;;16.37;10.18;;;;;;;7.28;46.87;99281.77;1650958;87;25242;-69
2022/03/31 10:58:58;;;;;;;8.25;5.97;;;;;;;7.22;47.32;99281.68;1650890;87;27415;-68
2022/03/31 11:01:30;;;;;;;7.25;4.53;;;;;;;7.22;47.32;99276.83;1650841;87;25926;-68
2022/03/31 11:04:08;;;;;;;5.87;4.00;;;;;;;7.18;46.81;99270.50;1651038;87;25749;-70
2022/03/31 11:06:53;;;;;;;8.80;4.08;;;;;;;7.14;46.56;99270.89;1651008;87;25613;-70
2022/03/31 11:09:31;;;;;;;6.22;3.92;;;;;;;7.07;46.05;99265.40;1650902;86;25319;-70
2022/03/31 11:11:59;;;;;;;8.40;4.95;;;;;;;7.00;46.53;99272.31;1650533;86;28224;-69
2022/03/31 11:14:25;;;;;;;8.95;5.30;;;;;;;7.08;46.97;99265.66;1650628;86;25311;-70
2022/03/31 11:16:51;;;;;;;7.08;4.90;;;;;;;7.22;47.07;99274.95;1650800;87;25421;-70
2022/03/31 11:19:20;;;;;;;17.87;7.67;;;;;;;7.32;47.18;99271.73;1623053;88;26242;-70
2022/03/31 11:21:47;;;;;;;19.67;6.80;;;;;;;7.51;47.18;99264.20;1651012;87;25493;-69
2022/03/31 11:24:14;;;;;;;6.95;4.80;;;;;;;7.76;46.87;99257.81;1650122;87;27333;-69
2022/03/31 11:26:44;;;;;;;8.83;4.80;;;;;;;7.91;46.27;99257.92;1662014;86;25680;-68
2022/03/31 11:29:30;;;;;;;15.25;6.22;;;;;;;8.15;46.25;99253.40;1572335;91;25733;-68
2022/03/31 11:31:57;;;;;;;9.08;5.72;;;;;;;8.36;45.78;99242.75;1572183;91;26135;-68
2022/03/31 11:34:27;;;;;;;9.60;4.97;;;;;;;8.53;45.69;99244.12;1572223;91;25794;-69
2022/03/31 11:36:55;;;;;;;16.97;6.67;;;;;;;8.87;45.18;99251.88;1572207;91;28374;-68
2022/03/31 11:39:28;;;;;;;11.57;5.90;;;;;;;9.20;45.12;99246.42;1572029;91;25730;-69
2022/03/31 11:41:53;;;;;;;8.05;4.58;;;;;;;9.44;44.61;99247.17;1572061;91;25840;-69
2022/03/31 11:44:21;;;;;;;6.87;5.08;;;;;;;9.58;43.99;99257.72;1572019;91;27518;-69
2022/03/31 11:46:49;;;;;;;10.13;5.40;;;;;;;9.65;43.36;99253.94;1571840;91;25687;-69
2022/03/31 11:49:17;;;;;;;66.05;38.20;;;;;;;9.65;43.24;99250.70;1571663;91;27364;-69